Terminal Aerodrome Forecast
Issued by NWS

Home | Current Version | Previous Version | Text Only | Print | Product List | Glossary On
Versions: 1 2 3 4 5 6 7 8 9 10 11 12 13 14 15 16
000
FTUS45 KABQ 251700
TAFFMN
TAF
KFMN 251732Z 2518/2618 VRB05KT P6SM SCT150
     FM252000 26011G18KT P6SM SCT100 BKN150
     FM252200 29010G18KT P6SM VCSH SCT090 BKN120
      TEMPO 2522/2601 VRB15G30KT -SHRA BKN080
     FM260200 03005KT P6SM SCT110 BKN200=

USA.gov is the U.S. government's official web portal to all federal, state and local government web resources and services.